createdAt,value
2017-03-15T00:00:42.021Z,0
2017-03-15T00:01:41.704Z,0
2017-03-15T00:02:42.010Z,0
2017-03-15T00:03:41.645Z,0
2017-03-15T00:04:41.664Z,0
2017-03-15T00:05:41.624Z,0
2017-03-15T00:06:41.614Z,0
2017-03-15T00:07:41.583Z,0
2017-03-15T00:08:41.573Z,0
2017-03-15T00:09:41.222Z,0
2017-03-15T00:10:41.227Z,0
2017-03-15T00:11:41.800Z,0
2017-03-15T00:12:41.798Z,0
2017-03-15T00:13:41.786Z,0
2017-03-15T00:14:41.135Z,0
2017-03-15T00:15:41.746Z,0
2017-03-15T00:16:41.708Z,0
2017-03-15T00:17:41.389Z,0
2017-03-15T00:18:41.671Z,0
2017-03-15T00:19:41.651Z,0
2017-03-15T00:20:41.627Z,0
2017-03-15T00:21:41.630Z,0
2017-03-15T00:22:41.298Z,0
2017-03-15T00:23:41.251Z,0
2017-03-15T00:24:41.243Z,0
2017-03-15T00:25:41.525Z,0
2017-03-15T00:26:41.220Z,0
2017-03-15T00:27:41.498Z,0
2017-03-15T00:28:41.475Z,0
2017-03-15T00:29:41.454Z,0
2017-03-15T00:30:41.427Z,0
2017-03-15T00:31:41.393Z,0
2017-03-15T00:32:41.370Z,0
2017-03-15T00:33:41.382Z,0
2017-03-15T00:34:41.062Z,0
2017-03-15T00:35:41.026Z,0
2017-03-15T00:36:40.998Z,0
2017-03-15T00:37:40.973Z,0
2017-03-15T00:38:41.247Z,0
2017-03-15T00:39:40.934Z,0
2017-03-15T00:40:41.174Z,0
2017-03-15T00:41:40.615Z,0
2017-03-15T00:42:40.886Z,0
2017-03-15T00:43:40.560Z,0
2017-03-15T00:44:40.839Z,0
2017-03-15T00:45:40.820Z,0
2017-03-15T00:46:41.100Z,0
2017-03-15T00:47:41.096Z,0
2017-03-15T00:48:41.045Z,0
2017-03-15T00:49:41.046Z,0
2017-03-15T00:50:40.997Z,0
2017-03-15T00:51:40.687Z,0
2017-03-15T00:52:40.996Z,0
2017-03-15T00:53:40.959Z,0
2017-03-15T00:54:40.929Z,0
2017-03-15T00:55:40.925Z,0
2017-03-15T00:56:40.888Z,0
2017-03-15T00:57:40.870Z,0
2017-03-15T00:58:40.870Z,0
2017-03-15T00:59:40.827Z,0
2017-03-15T01:00:40.817Z,0
2017-03-15T01:01:40.484Z,0
2017-03-15T01:02:40.481Z,0
2017-03-15T01:03:40.762Z,0
2017-03-15T01:04:40.721Z,0
2017-03-15T01:05:40.738Z,0
2017-03-15T01:06:40.717Z,0
2017-03-15T01:07:40.684Z,0
2017-03-15T01:08:40.365Z,0
2017-03-15T01:09:40.656Z,0
2017-03-15T01:10:40.605Z,0
2017-03-15T01:11:40.608Z,0
2017-03-15T01:12:40.567Z,0
2017-03-15T01:13:40.570Z,0
2017-03-15T01:14:40.563Z,0
2017-03-15T01:15:40.529Z,0
2017-03-15T01:16:40.182Z,0
2017-03-15T01:17:40.477Z,0
2017-03-15T01:18:40.461Z,0
2017-03-15T01:19:40.475Z,0
2017-03-15T01:20:40.415Z,0
2017-03-15T01:21:40.414Z,0
2017-03-15T01:22:40.371Z,0
2017-03-15T01:23:40.364Z,0
2017-03-15T01:24:40.337Z,0
2017-03-15T01:25:40.348Z,0
2017-03-15T01:26:40.318Z,0
2017-03-15T01:27:40.268Z,0
2017-03-15T01:28:40.266Z,0
2017-03-15T01:29:40.300Z,0
2017-03-15T01:30:39.622Z,0
2017-03-15T01:31:40.211Z,0
2017-03-15T01:32:40.184Z,0
2017-03-15T01:33:40.204Z,0
2017-03-15T01:34:40.150Z,0
2017-03-15T01:35:40.120Z,0
2017-03-15T01:36:40.092Z,0
2017-03-15T01:37:39.472Z,0
2017-03-15T01:38:39.462Z,0
2017-03-15T01:39:40.052Z,0
2017-03-15T01:40:40.018Z,0
2017-03-15T01:41:39.697Z,0
2017-03-15T01:42:39.667Z,0
2017-03-15T01:43:39.632Z,0
2017-03-15T01:44:39.933Z,0
2017-03-15T01:45:39.621Z,0
2017-03-15T01:46:39.578Z,0
2017-03-15T01:47:39.258Z,0
2017-03-15T01:48:39.596Z,0
2017-03-15T01:49:39.226Z,0
2017-03-15T01:50:39.214Z,0
2017-03-15T01:51:39.193Z,0
2017-03-15T01:52:39.165Z,0
2017-03-15T01:53:39.138Z,0
2017-03-15T01:54:39.751Z,0
2017-03-15T01:55:39.701Z,0
2017-03-15T01:56:39.670Z,0
2017-03-15T01:57:39.664Z,0
2017-03-15T01:58:39.664Z,0
2017-03-15T01:59:39.315Z,0
2017-03-15T02:00:39.306Z,0
2017-03-15T02:01:39.582Z,0
2017-03-15T02:02:39.560Z,0
2017-03-15T02:03:39.229Z,0
2017-03-15T02:04:39.219Z,0
2017-03-15T02:05:39.514Z,0
2017-03-15T02:06:39.466Z,0
2017-03-15T02:07:39.150Z,0
2017-03-15T02:08:39.137Z,0
2017-03-15T02:09:39.090Z,0
2017-03-15T02:10:39.123Z,0
2017-03-15T02:11:39.374Z,0
2017-03-15T02:12:38.760Z,0
2017-03-15T02:13:38.715Z,0
2017-03-15T02:14:39.315Z,0
2017-03-15T02:15:39.283Z,0
2017-03-15T02:16:39.283Z,0
2017-03-15T02:17:39.253Z,0
2017-03-15T02:18:38.942Z,0
2017-03-15T02:19:38.923Z,0
2017-03-15T02:20:38.878Z,0
2017-03-15T02:21:38.865Z,0
2017-03-15T02:22:39.137Z,0
2017-03-15T02:23:39.145Z,0
2017-03-15T02:24:38.840Z,0
2017-03-15T02:25:38.786Z,0
2017-03-15T02:26:38.774Z,0
2017-03-15T02:27:38.758Z,0
2017-03-15T02:28:39.052Z,0
2017-03-15T02:29:39.004Z,0
2017-03-15T02:30:38.986Z,0
2017-03-15T02:31:38.643Z,0
2017-03-15T02:32:38.940Z,0
2017-03-15T02:33:38.926Z,0
2017-03-15T02:34:38.901Z,0
2017-03-15T02:35:38.896Z,0
2017-03-15T02:36:38.846Z,0
2017-03-15T02:37:38.529Z,0
2017-03-15T02:38:38.835Z,0
2017-03-15T02:39:38.816Z,0
2017-03-15T02:40:38.805Z,0
2017-03-15T02:41:38.161Z,0
2017-03-15T02:42:38.449Z,0
2017-03-15T02:43:38.415Z,0
2017-03-15T02:44:38.697Z,0
2017-03-15T02:45:38.678Z,0
2017-03-15T02:46:38.670Z,0
2017-03-15T02:47:38.642Z,0
2017-03-15T02:48:38.620Z,0
2017-03-15T02:49:38.645Z,0
2017-03-15T02:50:38.592Z,0
2017-03-15T02:51:38.565Z,0
2017-03-15T02:52:38.260Z,0
2017-03-15T02:53:38.570Z,0
2017-03-15T02:54:38.510Z,0
2017-03-15T02:55:38.194Z,0
2017-03-15T02:56:38.465Z,0
2017-03-15T02:57:38.451Z,0
2017-03-15T02:58:38.170Z,0
2017-03-15T02:59:38.406Z,0
2017-03-15T03:00:38.438Z,0
2017-03-15T03:01:38.374Z,0
2017-03-15T03:02:38.072Z,0
2017-03-15T03:03:38.322Z,0
2017-03-15T03:04:38.326Z,0
2017-03-15T03:05:38.279Z,0
2017-03-15T03:06:37.665Z,0
2017-03-15T03:07:37.959Z,0
2017-03-15T03:08:37.927Z,0
2017-03-15T03:09:38.209Z,0
2017-03-15T03:10:38.201Z,0
2017-03-15T03:11:37.883Z,0
2017-03-15T03:12:38.166Z,0
2017-03-15T03:13:37.534Z,0
2017-03-15T03:14:38.143Z,0
2017-03-15T03:15:38.109Z,0
2017-03-15T03:16:37.468Z,0
2017-03-15T03:17:38.062Z,0
2017-03-15T03:18:37.741Z,0
2017-03-15T03:19:37.429Z,0
2017-03-15T03:20:37.688Z,0
2017-03-15T03:21:37.975Z,0
2017-03-15T03:22:37.964Z,0
2017-03-15T03:23:37.952Z,0
2017-03-15T03:24:37.927Z,0
2017-03-15T03:25:37.917Z,0
2017-03-15T03:26:37.894Z,0
2017-03-15T03:27:37.563Z,0
2017-03-15T03:28:37.858Z,0
2017-03-15T03:29:37.530Z,0
2017-03-15T03:30:37.516Z,0
2017-03-15T03:31:37.187Z,0
2017-03-15T03:32:37.477Z,0
2017-03-15T03:33:37.457Z,0
2017-03-15T03:34:37.435Z,0
2017-03-15T03:35:37.096Z,0
2017-03-15T03:36:37.391Z,0
2017-03-15T03:37:37.386Z,0
2017-03-15T03:38:37.366Z,0
2017-03-15T03:39:37.640Z,0
2017-03-15T03:40:37.308Z,0
2017-03-15T03:41:37.001Z,0
2017-03-15T03:42:37.583Z,0
2017-03-15T03:43:37.577Z,0
2017-03-15T03:44:36.634Z,0
2017-03-15T03:45:37.548Z,0
2017-03-15T03:46:37.520Z,0
2017-03-15T03:47:37.505Z,0
2017-03-15T03:48:36.871Z,0
2017-03-15T03:49:37.440Z,0
2017-03-15T03:50:37.444Z,0
2017-03-15T03:51:37.108Z,0
2017-03-15T03:52:37.388Z,0
2017-03-15T03:53:37.380Z,0
2017-03-15T03:54:37.353Z,0
2017-03-15T03:55:37.393Z,0
2017-03-15T03:56:36.709Z,0
2017-03-15T03:57:37.315Z,0
2017-03-15T03:58:37.285Z,0
2017-03-15T03:59:37.286Z,0
2017-03-15T04:00:37.247Z,0
2017-03-15T04:01:36.661Z,0
2017-03-15T04:02:37.211Z,0
2017-03-15T04:03:36.887Z,0
2017-03-15T04:04:36.869Z,0
2017-03-15T04:05:36.832Z,0
2017-03-15T04:06:36.845Z,0
2017-03-15T04:07:37.125Z,0
2017-03-15T04:08:36.793Z,0
2017-03-15T04:09:36.773Z,0
2017-03-15T04:10:36.744Z,0
2017-03-15T04:11:37.051Z,0
2017-03-15T04:12:36.725Z,0
2017-03-15T04:13:36.711Z,0
2017-03-15T04:14:36.661Z,0
2017-03-15T04:15:36.669Z,0
2017-03-15T04:16:36.958Z,0
2017-03-15T04:17:36.922Z,0
2017-03-15T04:18:36.897Z,0
2017-03-15T04:19:36.879Z,0
2017-03-15T04:20:36.263Z,0
2017-03-15T04:21:36.544Z,0
2017-03-15T04:22:36.822Z,0
2017-03-15T04:23:36.817Z,0
2017-03-15T04:24:36.788Z,0
2017-03-15T04:25:36.762Z,0
2017-03-15T04:26:36.163Z,0
2017-03-15T04:27:36.735Z,0
2017-03-15T04:28:36.093Z,0
2017-03-15T04:29:36.057Z,0
2017-03-15T04:30:36.383Z,0
2017-03-15T04:31:36.347Z,0
2017-03-15T04:32:36.639Z,0
2017-03-15T04:33:36.306Z,0
2017-03-15T04:34:36.296Z,0
2017-03-15T04:35:36.581Z,0
2017-03-15T04:36:36.256Z,0
2017-03-15T04:37:36.558Z,0
2017-03-15T04:38:36.528Z,0
2017-03-15T04:39:36.503Z,0
2017-03-15T04:40:36.499Z,0
2017-03-15T04:41:36.451Z,0
2017-03-15T04:42:36.460Z,0
2017-03-15T04:43:36.410Z,0
2017-03-15T04:44:36.421Z,0
2017-03-15T04:45:36.419Z,0
2017-03-15T04:46:36.046Z,0
2017-03-15T04:47:36.069Z,0
2017-03-15T04:48:36.349Z,0
2017-03-15T04:49:36.022Z,0
2017-03-15T04:50:36.301Z,0
2017-03-15T04:51:35.970Z,0
2017-03-15T04:52:36.265Z,0
2017-03-15T04:53:36.237Z,0
2017-03-15T04:54:36.222Z,0
2017-03-15T04:55:36.208Z,0
2017-03-15T04:56:35.886Z,0
2017-03-15T04:57:36.182Z,0
2017-03-15T04:58:35.861Z,0
2017-03-15T04:59:36.148Z,0
2017-03-15T05:00:35.826Z,0
2017-03-15T05:01:36.126Z,0
2017-03-15T05:02:35.774Z,0
2017-03-15T05:03:36.103Z,0
2017-03-15T05:04:36.034Z,0
2017-03-15T05:05:35.429Z,0
2017-03-15T05:06:36.010Z,0
2017-03-15T05:07:35.990Z,0
2017-03-15T05:08:35.693Z,0
2017-03-15T05:09:35.654Z,0
2017-03-15T05:10:35.929Z,0
2017-03-15T05:11:35.617Z,0
2017-03-15T05:12:35.654Z,0
2017-03-15T05:13:35.578Z,0
2017-03-15T05:14:35.574Z,0
2017-03-15T05:15:35.871Z,5
2017-03-15T05:16:35.825Z,5
2017-03-15T05:17:35.217Z,5
2017-03-15T05:18:35.813Z,5
2017-03-15T05:19:35.497Z,10
2017-03-15T05:20:35.460Z,10
2017-03-15T05:21:35.741Z,10
2017-03-15T05:22:35.732Z,15
2017-03-15T05:23:35.712Z,15
2017-03-15T05:24:35.093Z,20
2017-03-15T05:25:35.374Z,20
2017-03-15T05:26:35.377Z,25
2017-03-15T05:27:35.356Z,30
2017-03-15T05:28:35.657Z,30
2017-03-15T05:29:35.603Z,35
2017-03-15T05:30:35.612Z,40
2017-03-15T05:31:35.285Z,45
2017-03-15T05:32:35.547Z,50
2017-03-15T05:33:35.518Z,55
2017-03-15T05:34:35.528Z,60
2017-03-15T05:35:35.486Z,65
2017-03-15T05:36:35.507Z,70
2017-03-15T05:37:35.465Z,80
2017-03-15T05:38:35.474Z,80
2017-03-15T05:39:35.454Z,90
2017-03-15T05:40:35.146Z,100
2017-03-15T05:41:35.400Z,125
2017-03-15T05:42:35.381Z,155
2017-03-15T05:43:35.375Z,165
2017-03-15T05:44:35.359Z,165
2017-03-15T05:45:35.029Z,175
2017-03-15T05:46:35.309Z,180
2017-03-15T05:47:35.316Z,195
2017-03-15T05:48:35.295Z,210
2017-03-15T05:49:35.271Z,220
2017-03-15T05:50:35.240Z,220
2017-03-15T05:51:34.905Z,215
2017-03-15T05:52:35.212Z,220
2017-03-15T05:53:34.877Z,230
2017-03-15T05:54:35.168Z,225
2017-03-15T05:55:35.170Z,185
2017-03-15T05:56:34.846Z,180
2017-03-15T05:57:34.816Z,185
2017-03-15T05:58:34.510Z,190
2017-03-15T05:59:34.818Z,210
2017-03-15T06:00:34.781Z,225
2017-03-15T06:01:35.054Z,230
2017-03-15T06:02:34.766Z,225
2017-03-15T06:03:34.734Z,220
2017-03-15T06:04:34.688Z,225
2017-03-15T06:05:35.001Z,225
2017-03-15T06:06:34.992Z,230
2017-03-15T06:07:34.676Z,230
2017-03-15T06:08:34.967Z,240
2017-03-15T06:09:34.944Z,245
2017-03-15T06:10:34.915Z,250
2017-03-15T06:11:34.582Z,250
2017-03-15T06:12:34.891Z,255
2017-03-15T06:13:34.843Z,265
2017-03-15T06:14:34.853Z,270
2017-03-15T06:15:34.830Z,280
2017-03-15T06:16:34.828Z,280
2017-03-15T06:17:34.808Z,285
2017-03-15T06:18:34.770Z,305
2017-03-15T06:19:34.771Z,360
2017-03-15T06:20:34.756Z,445
2017-03-15T06:21:34.760Z,510
2017-03-15T06:22:34.725Z,500
2017-03-15T06:23:34.718Z,470
2017-03-15T06:24:34.685Z,475
2017-03-15T06:25:34.691Z,495
2017-03-15T06:26:34.361Z,515
2017-03-15T06:27:34.343Z,555
2017-03-15T06:28:34.653Z,650
2017-03-15T06:29:34.315Z,625
2017-03-15T06:30:34.343Z,645
2017-03-15T06:31:34.584Z,620
2017-03-15T06:32:34.289Z,565
2017-03-15T06:33:34.563Z,610
2017-03-15T06:34:34.536Z,715
2017-03-15T06:35:34.518Z,785
2017-03-15T06:36:34.194Z,820
2017-03-15T06:37:34.502Z,825
2017-03-15T06:38:34.476Z,720
2017-03-15T06:39:34.158Z,740
2017-03-15T06:40:34.461Z,725
2017-03-15T06:41:34.430Z,745
2017-03-15T06:42:34.419Z,820
2017-03-15T06:43:34.109Z,825
2017-03-15T06:44:34.101Z,870
2017-03-15T06:45:34.382Z,975
2017-03-15T06:46:34.363Z,1065
2017-03-15T06:47:34.344Z,1025
2017-03-15T06:48:34.337Z,1050
2017-03-15T06:49:34.337Z,1035
2017-03-15T06:50:34.329Z,955
2017-03-15T06:51:34.294Z,895
2017-03-15T06:52:34.296Z,850
2017-03-15T06:53:34.262Z,840
2017-03-15T06:54:34.231Z,820
2017-03-15T06:55:33.977Z,815
2017-03-15T06:56:34.240Z,855
2017-03-15T06:57:34.191Z,1015
2017-03-15T06:58:34.197Z,1190
2017-03-15T06:59:34.190Z,1300
2017-03-15T07:00:34.180Z,1370
2017-03-15T07:01:34.186Z,1400
2017-03-15T07:02:33.829Z,1445
2017-03-15T07:03:34.150Z,1425
2017-03-15T07:04:34.104Z,1520
2017-03-15T07:05:34.110Z,1595
2017-03-15T07:06:34.091Z,1625
2017-03-15T07:07:34.060Z,1575
2017-03-15T07:08:34.076Z,1485
2017-03-15T07:09:33.724Z,1540
2017-03-15T07:10:34.044Z,1500
2017-03-15T07:11:34.047Z,1475
2017-03-15T07:12:34.011Z,1505
2017-03-15T07:13:34.008Z,1350
2017-03-15T07:14:33.703Z,1500
2017-03-15T07:15:33.984Z,1335
2017-03-15T07:16:33.955Z,1370
2017-03-15T07:17:33.946Z,1415
2017-03-15T07:18:33.345Z,1240
2017-03-15T07:19:33.940Z,1275
2017-03-15T07:20:33.603Z,1290
2017-03-15T07:21:33.886Z,1325
2017-03-15T07:22:33.321Z,1440
2017-03-15T07:23:33.884Z,1370
2017-03-15T07:24:33.857Z,1395
2017-03-15T07:25:33.838Z,1740
2017-03-15T07:26:33.844Z,1765
2017-03-15T07:27:33.827Z,1495
2017-03-15T07:28:33.832Z,1605
2017-03-15T07:29:33.824Z,1750
2017-03-15T07:30:33.503Z,1885
2017-03-15T07:31:33.491Z,1770
2017-03-15T07:32:33.478Z,1555
2017-03-15T07:33:33.763Z,1555
2017-03-15T07:34:33.748Z,1610
2017-03-15T07:35:33.737Z,1535
2017-03-15T07:36:33.440Z,1525
2017-03-15T07:37:33.716Z,1645
2017-03-15T07:38:33.406Z,1530
2017-03-15T07:39:33.408Z,1420
2017-03-15T07:40:33.382Z,1620
2017-03-15T07:41:33.081Z,1745
2017-03-15T07:42:33.360Z,1745
2017-03-15T07:43:33.363Z,1770
2017-03-15T07:44:33.048Z,1765
2017-03-15T07:45:33.316Z,1840
2017-03-15T07:46:33.028Z,1870
2017-03-15T07:47:33.012Z,1715
2017-03-15T07:48:33.291Z,1820
2017-03-15T07:49:33.600Z,1650
2017-03-15T07:50:33.270Z,1685
2017-03-15T07:51:33.577Z,1905
2017-03-15T07:52:33.283Z,1820
2017-03-15T07:53:33.552Z,1730
2017-03-15T07:54:33.545Z,2025
2017-03-15T07:55:33.543Z,2050
2017-03-15T07:56:33.516Z,2015
2017-03-15T07:57:33.486Z,1935
2017-03-15T07:58:33.523Z,1690
2017-03-15T07:59:33.539Z,1600
2017-03-15T08:00:33.487Z,1855
2017-03-15T08:01:33.479Z,2050
2017-03-15T08:02:33.454Z,1965
2017-03-15T08:03:33.462Z,1925
2017-03-15T08:04:33.145Z,1995
2017-03-15T08:05:32.819Z,1885
2017-03-15T08:06:33.109Z,1810
2017-03-15T08:07:33.385Z,2085
2017-03-15T08:08:33.108Z,1950
2017-03-15T08:09:33.376Z,1935
2017-03-15T08:10:33.384Z,2095
2017-03-15T08:11:33.068Z,1985
2017-03-15T08:12:33.329Z,2465
2017-03-15T08:13:33.042Z,2655
2017-03-15T08:14:33.052Z,2485
2017-03-15T08:15:33.005Z,2365
2017-03-15T08:16:33.006Z,2465
2017-03-15T08:17:32.998Z,2315
2017-03-15T08:18:32.987Z,2330
2017-03-15T08:19:32.989Z,2565
2017-03-15T08:20:32.996Z,2230
2017-03-15T08:21:32.967Z,2545
2017-03-15T08:22:33.255Z,2275
2017-03-15T08:23:33.233Z,2175
2017-03-15T08:24:32.937Z,2205
2017-03-15T08:25:33.236Z,2305
2017-03-15T08:26:33.242Z,2290
2017-03-15T08:27:32.894Z,2565
2017-03-15T08:28:33.211Z,2790
2017-03-15T08:29:33.232Z,2440
2017-03-15T08:30:33.185Z,2560
2017-03-15T08:31:33.137Z,2360
2017-03-15T08:32:33.158Z,2440
2017-03-15T08:33:33.166Z,2425
2017-03-15T08:34:32.812Z,2240
2017-03-15T08:35:33.165Z,2370
2017-03-15T08:36:33.122Z,2535
2017-03-15T08:37:33.120Z,2450
2017-03-15T08:38:33.101Z,2220
2017-03-15T08:39:33.098Z,2115
2017-03-15T08:40:33.091Z,2220
2017-03-15T08:41:33.086Z,2315
2017-03-15T08:42:33.059Z,2275
2017-03-15T08:43:33.047Z,2235
2017-03-15T08:44:33.041Z,2145
2017-03-15T08:45:32.732Z,2290
2017-03-15T08:46:33.005Z,2430
2017-03-15T08:47:32.705Z,2460
2017-03-15T08:48:32.722Z,2640
2017-03-15T08:49:32.982Z,2435
2017-03-15T08:50:32.988Z,2540
2017-03-15T08:51:32.978Z,2480
2017-03-15T08:52:32.972Z,2385
2017-03-15T08:53:32.930Z,2405
2017-03-15T08:54:32.943Z,2615
2017-03-15T08:55:32.644Z,2750
2017-03-15T08:56:32.939Z,2910
2017-03-15T08:57:32.891Z,2835
2017-03-15T08:58:32.881Z,2515
2017-03-15T08:59:32.545Z,2555
2017-03-15T09:00:32.550Z,2375
2017-03-15T09:01:32.541Z,2205
2017-03-15T09:02:32.538Z,2085
2017-03-15T09:03:32.559Z,2315
2017-03-15T09:04:32.817Z,1975
2017-03-15T09:05:32.853Z,2300
2017-03-15T09:06:32.475Z,2465
2017-03-15T09:07:32.782Z,2450
2017-03-15T09:08:32.787Z,2430
2017-03-15T09:09:32.457Z,2640
2017-03-15T09:10:32.457Z,2275
2017-03-15T09:11:32.729Z,2510
2017-03-15T09:12:32.729Z,2760
2017-03-15T09:13:32.734Z,2925
2017-03-15T09:14:32.709Z,2965
2017-03-15T09:15:32.713Z,3045
2017-03-15T09:16:32.379Z,2990
2017-03-15T09:17:32.675Z,2840
2017-03-15T09:18:32.658Z,2910
2017-03-15T09:19:32.623Z,2945
2017-03-15T09:20:32.618Z,2690
2017-03-15T09:21:32.620Z,2370
2017-03-15T09:22:32.308Z,2455
2017-03-15T09:23:32.608Z,2875
2017-03-15T09:24:32.607Z,3445
2017-03-15T09:25:32.592Z,3115
2017-03-15T09:26:32.566Z,2805
2017-03-15T09:27:32.540Z,3235
2017-03-15T09:28:32.536Z,3450
2017-03-15T09:29:32.526Z,3990
2017-03-15T09:30:32.509Z,3890
2017-03-15T09:31:32.526Z,2535
2017-03-15T09:32:32.484Z,1905
2017-03-15T09:33:32.470Z,1740
2017-03-15T09:34:31.897Z,1760
2017-03-15T09:35:32.461Z,1780
2017-03-15T09:36:32.450Z,1885
2017-03-15T09:37:32.465Z,2585
2017-03-15T09:38:32.443Z,3620
2017-03-15T09:39:32.438Z,4310
2017-03-15T09:40:32.398Z,3610
2017-03-15T09:41:32.398Z,3895
2017-03-15T09:42:32.377Z,4275
2017-03-15T09:43:32.350Z,3305
2017-03-15T09:44:32.405Z,3770
2017-03-15T09:45:32.352Z,4790
2017-03-15T09:46:32.059Z,3965
2017-03-15T09:47:32.004Z,3555
2017-03-15T09:48:32.308Z,3145
2017-03-15T09:49:32.318Z,3010
2017-03-15T09:50:32.281Z,4030
2017-03-15T09:51:32.291Z,2825
2017-03-15T09:52:32.259Z,4970
2017-03-15T09:53:31.634Z,3440
2017-03-15T09:54:32.220Z,4165
2017-03-15T09:55:31.603Z,3385
2017-03-15T09:56:32.202Z,3075
2017-03-15T09:57:31.600Z,3105
2017-03-15T09:58:32.187Z,3540
2017-03-15T09:59:32.162Z,3095
2017-03-15T10:00:32.173Z,3425
2017-03-15T10:01:32.150Z,3210
2017-03-15T10:02:31.528Z,3610
2017-03-15T10:03:31.813Z,3145
2017-03-15T10:04:31.504Z,2555
2017-03-15T10:05:31.802Z,3560
2017-03-15T10:06:31.766Z,4325
2017-03-15T10:07:31.791Z,3880
2017-03-15T10:08:31.772Z,3730
2017-03-15T10:09:32.047Z,3280
2017-03-15T10:10:32.072Z,3125
2017-03-15T10:11:31.715Z,3665
2017-03-15T10:12:31.728Z,3655
2017-03-15T10:13:32.044Z,2770
2017-03-15T10:14:31.694Z,2745
2017-03-15T10:15:31.709Z,3780
2017-03-15T10:16:31.992Z,4585
2017-03-15T10:17:31.971Z,4250
2017-03-15T10:18:31.949Z,3835
2017-03-15T10:19:31.935Z,3975
2017-03-15T10:20:31.929Z,3950
2017-03-15T10:21:31.624Z,3810
2017-03-15T10:22:31.593Z,3435
2017-03-15T10:23:31.633Z,3450
2017-03-15T10:24:31.588Z,3715
2017-03-15T10:25:31.574Z,3585
2017-03-15T10:26:31.831Z,3445
2017-03-15T10:27:31.527Z,3265
2017-03-15T10:28:31.806Z,3270
2017-03-15T10:29:31.830Z,3180
2017-03-15T10:30:31.493Z,3185
2017-03-15T10:31:31.489Z,3060
2017-03-15T10:32:31.474Z,3465
2017-03-15T10:33:31.775Z,2925
2017-03-15T10:34:31.431Z,2815
2017-03-15T10:35:31.736Z,2855
2017-03-15T10:36:31.779Z,2975
2017-03-15T10:37:31.689Z,3230
2017-03-15T10:38:31.728Z,3225
2017-03-15T10:39:31.394Z,3680
2017-03-15T10:40:31.697Z,3490
2017-03-15T10:41:31.676Z,3415
2017-03-15T10:42:31.652Z,3715
2017-03-15T10:43:31.643Z,3580
2017-03-15T10:44:31.618Z,3235
2017-03-15T10:45:31.631Z,3195
2017-03-15T10:46:31.613Z,3395
2017-03-15T10:47:31.614Z,3040
2017-03-15T10:48:31.580Z,3190
2017-03-15T10:49:31.584Z,3235
2017-03-15T10:50:31.576Z,3195
2017-03-15T10:51:30.938Z,3130
2017-03-15T10:52:31.522Z,3650
2017-03-15T10:53:31.536Z,3650
2017-03-15T10:54:31.225Z,3545
2017-03-15T10:55:31.502Z,3325
2017-03-15T10:56:31.487Z,3300
2017-03-15T10:57:31.507Z,3275
2017-03-15T10:58:31.483Z,3465
2017-03-15T10:59:31.475Z,3665
2017-03-15T11:00:31.463Z,3150
2017-03-15T11:01:31.436Z,3370
2017-03-15T11:02:31.453Z,3590
2017-03-15T11:03:31.415Z,3520
2017-03-15T11:04:31.455Z,3225
2017-03-15T11:05:31.114Z,3555
2017-03-15T11:06:31.378Z,3645
2017-03-15T11:07:31.395Z,3930
2017-03-15T11:08:30.467Z,4150
2017-03-15T11:09:31.371Z,3440
2017-03-15T11:10:31.053Z,3120
2017-03-15T11:11:31.348Z,3575
2017-03-15T11:12:31.343Z,3610
2017-03-15T11:13:31.008Z,4120
2017-03-15T11:14:31.326Z,3410
2017-03-15T11:15:31.331Z,3990
2017-03-15T11:16:31.012Z,3795
2017-03-15T11:17:31.302Z,3700
2017-03-15T11:18:31.264Z,3375
2017-03-15T11:19:31.271Z,3265
2017-03-15T11:20:31.278Z,3025
2017-03-15T11:21:31.257Z,3270
2017-03-15T11:22:31.263Z,3605
2017-03-15T11:23:31.249Z,3420
2017-03-15T11:24:30.907Z,3280
2017-03-15T11:25:31.219Z,3580
2017-03-15T11:26:31.226Z,3630
2017-03-15T11:27:31.208Z,3255
2017-03-15T11:28:31.185Z,3255
2017-03-15T11:29:31.179Z,3335
2017-03-15T11:30:31.186Z,3060
2017-03-15T11:31:30.861Z,2810
2017-03-15T11:32:30.844Z,2935
2017-03-15T11:33:30.845Z,3095
2017-03-15T11:34:30.823Z,2960
2017-03-15T11:35:31.127Z,2970
2017-03-15T11:36:31.110Z,2650
2017-03-15T11:37:30.799Z,2695
2017-03-15T11:38:31.101Z,2420
2017-03-15T11:39:30.504Z,2820
2017-03-15T11:40:31.103Z,2970
2017-03-15T11:41:31.083Z,2575
2017-03-15T11:42:31.095Z,2810
2017-03-15T11:43:30.746Z,3610
2017-03-15T11:44:30.725Z,4205
2017-03-15T11:45:30.744Z,4220
2017-03-15T11:46:30.717Z,3870
2017-03-15T11:47:31.021Z,3755
2017-03-15T11:48:30.389Z,4030
2017-03-15T11:49:30.691Z,3860
2017-03-15T11:50:30.996Z,3385
2017-03-15T11:51:30.968Z,3305
2017-03-15T11:52:30.959Z,3220
2017-03-15T11:53:30.941Z,2705
2017-03-15T11:54:30.940Z,2435
2017-03-15T11:55:30.940Z,2565
2017-03-15T11:56:30.609Z,3075
2017-03-15T11:57:30.918Z,3730
2017-03-15T11:58:30.886Z,3775
2017-03-15T11:59:30.873Z,3640
2017-03-15T12:00:30.866Z,3560
2017-03-15T12:01:30.856Z,3125
2017-03-15T12:02:30.845Z,3445
2017-03-15T12:03:30.821Z,3075
2017-03-15T12:04:30.218Z,3725
2017-03-15T12:05:30.815Z,3700
2017-03-15T12:06:30.800Z,3960
2017-03-15T12:07:30.780Z,3105
2017-03-15T12:08:30.774Z,3885
2017-03-15T12:09:30.457Z,3035
2017-03-15T12:10:30.767Z,3320
2017-03-15T12:11:30.741Z,2910
2017-03-15T12:12:30.446Z,3245
2017-03-15T12:13:29.814Z,4425
2017-03-15T12:14:30.718Z,3535
2017-03-15T12:15:30.674Z,3245
2017-03-15T12:16:30.389Z,3720
2017-03-15T12:17:30.376Z,3760
2017-03-15T12:18:30.642Z,4450
2017-03-15T12:19:30.645Z,4045
2017-03-15T12:20:30.616Z,3685
2017-03-15T12:21:30.297Z,3655
2017-03-15T12:22:30.590Z,3835
2017-03-15T12:23:30.571Z,3990
2017-03-15T12:24:30.295Z,3660
2017-03-15T12:25:30.558Z,3650
2017-03-15T12:26:30.271Z,3890
2017-03-15T12:27:30.551Z,4270
2017-03-15T12:28:30.532Z,4620
2017-03-15T12:29:30.229Z,4070
2017-03-15T12:30:30.515Z,3310
2017-03-15T12:31:30.495Z,3780
2017-03-15T12:32:30.494Z,4150
2017-03-15T12:33:30.446Z,4535
2017-03-15T12:34:30.454Z,5000
2017-03-15T12:35:30.451Z,4085
2017-03-15T12:36:30.430Z,3760
2017-03-15T12:37:30.403Z,3945
2017-03-15T12:38:30.414Z,4120
2017-03-15T12:39:30.405Z,4380
2017-03-15T12:40:30.392Z,3965
2017-03-15T12:41:30.373Z,3570
2017-03-15T12:42:29.756Z,3275
2017-03-15T12:43:30.360Z,3730
2017-03-15T12:44:30.350Z,4460
2017-03-15T12:45:30.004Z,4270
2017-03-15T12:46:30.008Z,3305
2017-03-15T12:47:29.997Z,2955
2017-03-15T12:48:29.969Z,3780
2017-03-15T12:49:29.950Z,5155
2017-03-15T12:50:29.970Z,4965
2017-03-15T12:51:30.271Z,3445
2017-03-15T12:52:29.941Z,2815
2017-03-15T12:53:30.249Z,3180
2017-03-15T12:54:30.199Z,3400
2017-03-15T12:55:30.206Z,3655
2017-03-15T12:56:29.900Z,4200
2017-03-15T12:57:29.874Z,4670
2017-03-15T12:58:29.560Z,4210
2017-03-15T12:59:30.170Z,3975
2017-03-15T13:00:29.529Z,4170
2017-03-15T13:01:30.121Z,4460
2017-03-15T13:02:29.834Z,4090
2017-03-15T13:03:35.818Z,3575
2017-03-15T13:04:30.106Z,3515
2017-03-15T13:05:29.777Z,3055
2017-03-15T13:06:29.455Z,2790
2017-03-15T13:07:29.780Z,2730
2017-03-15T13:08:29.734Z,2445
2017-03-15T13:09:29.709Z,2090
2017-03-15T13:10:30.035Z,2015
2017-03-15T13:11:30.011Z,2230
2017-03-15T13:12:29.716Z,2525
2017-03-15T13:13:29.982Z,2685
2017-03-15T13:14:29.692Z,2845
2017-03-15T13:15:29.972Z,3120
2017-03-15T13:16:29.640Z,2565
2017-03-15T13:17:29.648Z,2580
2017-03-15T13:18:29.918Z,2470
2017-03-15T13:19:29.310Z,3015
2017-03-15T13:20:29.885Z,3125
2017-03-15T13:21:29.891Z,3550
2017-03-15T13:22:29.247Z,3350
2017-03-15T13:23:29.859Z,3530
2017-03-15T13:24:29.838Z,3640
2017-03-15T13:25:29.514Z,3050
2017-03-15T13:26:29.812Z,3175
2017-03-15T13:27:29.512Z,3420
2017-03-15T13:28:29.801Z,3500
2017-03-15T13:29:29.800Z,3565
2017-03-15T13:30:29.784Z,3730
2017-03-15T13:31:29.751Z,3800
2017-03-15T13:32:29.754Z,3630
2017-03-15T13:33:29.748Z,3445
2017-03-15T13:34:29.429Z,3760
2017-03-15T13:35:29.410Z,3680
2017-03-15T13:36:29.731Z,3485
2017-03-15T13:37:29.701Z,3330
2017-03-15T13:38:29.684Z,3235
2017-03-15T13:39:29.672Z,2415
2017-03-15T13:40:29.668Z,2780
2017-03-15T13:41:29.352Z,2315
2017-03-15T13:42:29.346Z,3570
2017-03-15T13:43:29.635Z,4280
2017-03-15T13:44:29.308Z,3115
2017-03-15T13:45:29.709Z,3485
2017-03-15T13:46:29.590Z,3930
2017-03-15T13:47:29.598Z,2630
2017-03-15T13:48:29.268Z,2565
2017-03-15T13:49:29.579Z,2220
2017-03-15T13:50:29.246Z,2370
2017-03-15T13:51:29.262Z,3475
2017-03-15T13:52:29.221Z,2710
2017-03-15T13:53:29.208Z,2180
2017-03-15T13:54:29.217Z,2955